Time,TemperatureF,DewpointF,PressureIn,WindDirection,WindDirectionDegrees,WindSpeedMPH,WindSpeedGustMPH,Humidity,HourlyPrecipIn,Conditions,Clouds,dailyrainin,SoftwareType,DateUTC
2013-02-27 00:01:00,21.0,7.0,-100.00,NNW,346,4.0,11.0,55,0.00,,,0.00,,2013-02-27 07:01:00,
2013-02-27 00:12:00,21.0,7.0,-100.00,NNW,346,4.0,11.0,55,0.00,,,0.00,,2013-02-27 07:12:00,
2013-02-27 00:21:00,21.0,7.0,-100.00,NNW,346,4.0,11.0,55,0.00,,,0.00,,2013-02-27 07:21:00,
2013-02-27 00:32:00,21.0,7.0,-100.00,NNW,346,4.0,11.0,55,0.00,,,0.00,,2013-02-27 07:32:00,
2013-02-27 00:40:00,21.0,7.0,-100.00,NNW,342,4.0,11.0,55,0.00,,,0.00,,2013-02-27 07:40:00,
2013-02-27 01:01:00,21.0,7.0,-100.00,NNW,342,4.0,11.0,55,0.00,,,0.00,,2013-02-27 08:01:00,
2013-02-27 01:11:00,21.0,7.0,-100.00,NNW,342,4.0,11.0,55,0.00,,,0.00,,2013-02-27 08:11:00,
2013-02-27 01:21:00,21.0,7.0,-100.00,NNW,342,4.0,11.0,55,0.00,,,0.00,,2013-02-27 08:21:00,
2013-02-27 01:32:00,21.0,7.0,-100.00,NNW,342,4.0,11.0,55,0.00,,,0.00,,2013-02-27 08:32:00,
2013-02-27 01:40:00,19.0,7.0,-100.00,NW,314,2.0,9.0,60,0.00,,,0.00,,2013-02-27 08:40:00,
2013-02-27 02:02:00,19.0,7.0,-100.00,NW,314,2.0,9.0,60,0.00,,,0.00,,2013-02-27 09:02:00,
2013-02-27 02:12:00,19.0,7.0,-100.00,NW,314,2.0,9.0,60,0.00,,,0.00,,2013-02-27 09:12:00,
2013-02-27 02:22:00,19.0,7.0,-100.00,NW,314,2.0,9.0,60,0.00,,,0.00,,2013-02-27 09:22:00,
2013-02-27 02:32:00,19.0,7.0,-100.00,NW,314,2.0,9.0,60,0.00,,,0.00,,2013-02-27 09:32:00,
2013-02-27 02:40:00,18.0,6.0,-100.00,NW,304,1.0,3.0,58,0.00,,,0.00,,2013-02-27 09:40:00,
2013-02-27 03:01:00,18.0,6.0,-100.00,NW,304,1.0,3.0,58,0.00,,,0.00,,2013-02-27 10:01:00,
2013-02-27 03:12:00,18.0,6.0,-100.00,NW,304,1.0,3.0,58,0.00,,,0.00,,2013-02-27 10:12:00,
2013-02-27 03:22:00,18.0,6.0,-100.00,NW,304,1.0,3.0,58,0.00,,,0.00,,2013-02-27 10:22:00,
2013-02-27 03:32:00,18.0,6.0,-100.00,NW,304,1.0,3.0,58,0.00,,,0.00,,2013-02-27 10:32:00,
2013-02-27 03:40:00,16.0,6.0,-100.00,WNW,301,0.0,2.0,64,0.00,,,0.00,,2013-02-27 10:40:00,
2013-02-27 04:02:00,16.0,6.0,-100.00,WNW,301,0.0,2.0,64,0.00,,,0.00,,2013-02-27 11:02:00,
2013-02-27 04:12:00,16.0,6.0,-100.00,WNW,301,0.0,2.0,64,0.00,,,0.00,,2013-02-27 11:12:00,
2013-02-27 04:22:00,16.0,6.0,-100.00,WNW,301,0.0,2.0,64,0.00,,,0.00,,2013-02-27 11:22:00,
2013-02-27 04:32:00,16.0,6.0,-100.00,WNW,301,0.0,2.0,64,0.00,,,0.00,,2013-02-27 11:32:00,
2013-02-27 04:40:00,14.0,5.0,-100.00,NW,318,2.0,3.0,67,0.00,,,-99.99,,2013-02-27 11:40:00,
2013-02-27 05:02:00,14.0,5.0,-100.00,NW,318,2.0,3.0,67,0.00,,,-99.99,,2013-02-27 12:02:00,
2013-02-27 05:13:00,14.0,5.0,-100.00,NW,318,2.0,3.0,67,0.00,,,-99.99,,2013-02-27 12:13:00,
2013-02-27 05:22:00,14.0,5.0,-100.00,NW,318,2.0,3.0,67,0.00,,,-99.99,,2013-02-27 12:22:00,
2013-02-27 05:33:00,14.0,5.0,-100.00,NW,318,2.0,3.0,67,0.00,,,-99.99,,2013-02-27 12:33:00,
2013-02-27 05:40:00,12.0,4.0,-100.00,NW,320,2.0,4.0,71,0.00,,,0.00,,2013-02-27 12:40:00,
2013-02-27 06:02:00,12.0,4.0,-100.00,NW,320,2.0,4.0,71,0.00,,,0.00,,2013-02-27 13:02:00,
2013-02-27 06:11:00,12.0,4.0,-100.00,NW,320,2.0,4.0,71,0.00,,,0.00,,2013-02-27 13:11:00,
2013-02-27 06:22:00,12.0,4.0,-100.00,NW,320,2.0,4.0,71,0.00,,,0.00,,2013-02-27 13:22:00,
2013-02-27 06:32:00,12.0,4.0,-100.00,NW,320,2.0,4.0,71,0.00,,,0.00,,2013-02-27 13:32:00,
2013-02-27 06:40:00,13.0,5.0,-100.00,West,273,1.0,3.0,71,0.00,,,0.00,,2013-02-27 13:40:00,
2013-02-27 07:02:00,13.0,5.0,-100.00,West,273,1.0,3.0,71,0.00,,,0.00,,2013-02-27 14:02:00,
2013-02-27 07:12:00,13.0,5.0,-100.00,West,273,1.0,3.0,71,0.00,,,0.00,,2013-02-27 14:12:00,
2013-02-27 07:22:00,13.0,5.0,-100.00,West,273,1.0,3.0,71,0.00,,,0.00,,2013-02-27 14:22:00,
2013-02-27 07:32:00,13.0,5.0,-100.00,West,273,1.0,3.0,71,0.00,,,0.00,,2013-02-27 14:32:00,
2013-02-27 07:40:00,20.0,8.0,-100.00,NNW,334,2.0,4.0,60,0.00,,,0.00,,2013-02-27 14:40:00,
2013-02-27 08:02:00,20.0,8.0,-100.00,NNW,334,2.0,4.0,60,0.00,,,0.00,,2013-02-27 15:02:00,
2013-02-27 08:12:00,20.0,8.0,-100.00,NNW,334,2.0,4.0,60,0.00,,,0.00,,2013-02-27 15:12:00,
2013-02-27 08:22:00,20.0,8.0,-100.00,NNW,334,2.0,4.0,60,0.00,,,0.00,,2013-02-27 15:22:00,
2013-02-27 08:32:00,20.0,8.0,-100.00,NNW,334,2.0,4.0,60,0.00,,,0.00,,2013-02-27 15:32:00,
2013-02-27 08:40:00,24.0,8.0,-100.00,North,350,6.0,9.0,50,0.00,,,0.00,,2013-02-27 15:40:00,
2013-02-27 09:02:00,24.0,8.0,-100.00,North,350,6.0,9.0,50,0.00,,,0.00,,2013-02-27 16:02:00,
2013-02-27 09:12:00,24.0,8.0,-100.00,North,350,6.0,9.0,50,0.00,,,0.00,,2013-02-27 16:12:00,
2013-02-27 09:22:00,24.0,8.0,-100.00,North,350,6.0,9.0,50,0.00,,,0.00,,2013-02-27 16:22:00,
2013-02-27 09:32:00,24.0,8.0,-100.00,North,350,6.0,9.0,50,0.00,,,0.00,,2013-02-27 16:32:00,
2013-02-27 09:40:00,28.0,7.0,-100.00,NNE,29,5.0,13.0,40,0.00,,,0.00,,2013-02-27 16:40:00,
2013-02-27 10:02:00,28.0,7.0,-100.00,NNE,29,5.0,13.0,40,0.00,,,0.00,,2013-02-27 17:02:00,
2013-02-27 10:11:00,28.0,7.0,-100.00,NNE,29,5.0,13.0,40,0.00,,,0.00,,2013-02-27 17:11:00,
2013-02-27 10:21:00,28.0,7.0,-100.00,NNE,29,5.0,13.0,40,0.00,,,0.00,,2013-02-27 17:21:00,
2013-02-27 10:32:00,28.0,7.0,-100.00,NNE,29,5.0,13.0,40,0.00,,,0.00,,2013-02-27 17:32:00,
2013-02-27 10:40:00,33.0,4.0,-100.00,ENE,74,3.0,12.0,29,0.00,,,0.00,,2013-02-27 17:40:00,
2013-02-27 11:11:00,33.0,4.0,-100.00,ENE,74,3.0,12.0,29,0.00,,,0.00,,2013-02-27 18:11:00,
2013-02-27 11:22:00,33.0,4.0,-100.00,ENE,74,3.0,12.0,29,0.00,,,0.00,,2013-02-27 18:22:00,
2013-02-27 11:32:00,33.0,4.0,-100.00,ENE,74,3.0,12.0,29,0.00,,,0.00,,2013-02-27 18:32:00,
2013-02-27 11:40:00,35.0,-1.0,-100.00,ENE,73,6.0,9.0,21,0.00,,,-99.99,,2013-02-27 18:40:00,
2013-02-27 12:01:00,35.0,-1.0,-100.00,ENE,73,6.0,9.0,21,0.00,,,-99.99,,2013-02-27 19:01:00,
2013-02-27 12:12:00,35.0,-1.0,-100.00,ENE,73,6.0,9.0,21,0.00,,,-99.99,,2013-02-27 19:12:00,
2013-02-27 12:21:00,35.0,-1.0,-100.00,ENE,73,6.0,9.0,21,0.00,,,-99.99,,2013-02-27 19:21:00,
2013-02-27 12:32:00,35.0,-1.0,-100.00,ENE,73,6.0,9.0,21,0.00,,,-99.99,,2013-02-27 19:32:00,
2013-02-27 12:40:00,38.0,3.0,-100.00,East,98,5.0,13.0,22,0.00,,,0.00,,2013-02-27 19:40:00,
2013-02-27 13:01:00,38.0,3.0,-100.00,East,98,5.0,13.0,22,0.00,,,0.00,,2013-02-27 20:01:00,
2013-02-27 13:12:00,38.0,3.0,-100.00,East,98,5.0,13.0,22,0.00,,,0.00,,2013-02-27 20:12:00,
2013-02-27 13:22:00,38.0,3.0,-100.00,East,98,5.0,13.0,22,0.00,,,0.00,,2013-02-27 20:22:00,
2013-02-27 13:32:00,38.0,3.0,-100.00,East,98,5.0,13.0,22,0.00,,,0.00,,2013-02-27 20:32:00,
2013-02-27 13:40:00,38.0,4.0,-100.00,SSE,157,5.0,10.0,23,0.00,,,-99.99,,2013-02-27 20:40:00,
2013-02-27 14:02:00,38.0,4.0,-100.00,SSE,157,5.0,10.0,23,0.00,,,-99.99,,2013-02-27 21:02:00,
2013-02-27 14:11:00,38.0,4.0,-100.00,SSE,157,5.0,10.0,23,0.00,,,-99.99,,2013-02-27 21:11:00,
2013-02-27 14:22:00,38.0,4.0,-100.00,SSE,157,5.0,10.0,23,0.00,,,-99.99,,2013-02-27 21:22:00,
2013-02-27 14:32:00,38.0,4.0,-100.00,SSE,157,5.0,10.0,23,0.00,,,-99.99,,2013-02-27 21:32:00,
2013-02-27 14:40:00,38.0,5.0,-100.00,South,190,4.0,17.0,25,0.00,,,0.00,,2013-02-27 21:40:00,
2013-02-27 15:01:00,38.0,5.0,-100.00,South,190,4.0,17.0,25,0.00,,,0.00,,2013-02-27 22:01:00,
2013-02-27 15:11:00,38.0,5.0,-100.00,South,190,4.0,17.0,25,0.00,,,0.00,,2013-02-27 22:11:00,
2013-02-27 15:21:00,38.0,5.0,-100.00,South,190,4.0,17.0,25,0.00,,,0.00,,2013-02-27 22:21:00,
2013-02-27 15:32:00,38.0,5.0,-100.00,South,190,4.0,17.0,25,0.00,,,0.00,,2013-02-27 22:32:00,
2013-02-27 15:40:00,37.0,4.0,-100.00,West,267,3.0,8.0,25,0.00,,,0.00,,2013-02-27 22:40:00,
2013-02-27 16:01:00,37.0,4.0,-100.00,West,267,3.0,8.0,25,0.00,,,0.00,,2013-02-27 23:01:00,
2013-02-27 16:11:00,37.0,4.0,-100.00,West,267,3.0,8.0,25,0.00,,,0.00,,2013-02-27 23:11:00,
2013-02-27 16:21:00,37.0,4.0,-100.00,West,267,3.0,8.0,25,0.00,,,0.00,,2013-02-27 23:21:00,
2013-02-27 16:32:00,37.0,4.0,-100.00,West,267,3.0,8.0,25,0.00,,,0.00,,2013-02-27 23:32:00,
2013-02-27 16:40:00,35.0,4.0,-100.00,SSW,197,4.0,9.0,27,0.00,,,0.00,,2013-02-27 23:40:00,
2013-02-27 17:02:00,35.0,4.0,-100.00,SSW,197,4.0,9.0,27,0.00,,,0.00,,2013-02-28 00:02:00,
2013-02-27 17:12:00,35.0,4.0,-100.00,SSW,197,4.0,9.0,27,0.00,,,0.00,,2013-02-28 00:12:00,
2013-02-27 17:21:00,35.0,4.0,-100.00,SSW,197,4.0,9.0,27,0.00,,,0.00,,2013-02-28 00:21:00,
2013-02-27 17:32:00,35.0,4.0,-100.00,SSW,197,4.0,9.0,27,0.00,,,0.00,,2013-02-28 00:32:00,
2013-02-27 17:40:00,34.0,4.0,-100.00,SSW,196,2.0,8.0,27,0.00,,,0.00,,2013-02-28 00:40:00,
2013-02-27 18:01:00,34.0,4.0,-100.00,SSW,196,2.0,8.0,27,0.00,,,0.00,,2013-02-28 01:01:00,
2013-02-27 18:11:00,34.0,4.0,-100.00,SSW,196,2.0,8.0,27,0.00,,,0.00,,2013-02-28 01:11:00,
2013-02-27 18:22:00,34.0,4.0,-100.00,SSW,196,2.0,8.0,27,0.00,,,0.00,,2013-02-28 01:22:00,
2013-02-27 18:32:00,34.0,4.0,-100.00,SSW,196,2.0,8.0,27,0.00,,,0.00,,2013-02-28 01:32:00,
2013-02-27 18:40:00,27.0,5.0,-100.00,WNW,293,2.0,4.0,38,0.00,,,0.00,,2013-02-28 01:40:00,
2013-02-27 19:01:00,27.0,5.0,-100.00,WNW,293,2.0,4.0,38,0.00,,,0.00,,2013-02-28 02:01:00,
2013-02-27 19:11:00,27.0,5.0,-100.00,WNW,293,2.0,4.0,38,0.00,,,0.00,,2013-02-28 02:11:00,
2013-02-27 19:22:00,27.0,5.0,-100.00,WNW,293,2.0,4.0,38,0.00,,,0.00,,2013-02-28 02:22:00,
2013-02-27 19:31:00,27.0,5.0,-100.00,WNW,293,2.0,4.0,38,0.00,,,0.00,,2013-02-28 02:31:00,
2013-02-27 19:40:00,28.0,4.0,-100.00,NW,320,4.0,8.0,35,0.00,,,-99.99,,2013-02-28 02:40:00,
2013-02-27 20:01:00,28.0,4.0,-100.00,NW,320,4.0,8.0,35,0.00,,,-99.99,,2013-02-28 03:01:00,
2013-02-27 20:11:00,28.0,4.0,-100.00,NW,320,4.0,8.0,35,0.00,,,-99.99,,2013-02-28 03:11:00,
2013-02-27 20:21:00,28.0,4.0,-100.00,NW,320,4.0,8.0,35,0.00,,,-99.99,,2013-02-28 03:21:00,
2013-02-27 20:32:00,28.0,4.0,-100.00,NW,320,4.0,8.0,35,0.00,,,-99.99,,2013-02-28 03:32:00,
2013-02-27 20:40:00,28.0,3.0,-100.00,WNW,283,4.0,11.0,34,0.00,,,0.00,,2013-02-28 03:40:00,
2013-02-27 21:02:00,28.0,3.0,-100.00,WNW,283,4.0,11.0,34,0.00,,,0.00,,2013-02-28 04:02:00,
2013-02-27 21:11:00,28.0,3.0,-100.00,WNW,283,4.0,11.0,34,0.00,,,0.00,,2013-02-28 04:11:00,
2013-02-27 21:21:00,28.0,3.0,-100.00,WNW,283,4.0,11.0,34,0.00,,,0.00,,2013-02-28 04:21:00,
2013-02-27 21:32:00,28.0,3.0,-100.00,WNW,283,4.0,11.0,34,0.00,,,0.00,,2013-02-28 04:32:00,
2013-02-27 21:40:00,26.0,3.0,-100.00,West,274,3.0,7.0,37,0.00,,,0.00,,2013-02-28 04:40:00,
2013-02-27 22:01:00,26.0,3.0,-100.00,West,274,3.0,7.0,37,0.00,,,0.00,,2013-02-28 05:01:00,
2013-02-27 22:11:00,26.0,3.0,-100.00,West,274,3.0,7.0,37,0.00,,,0.00,,2013-02-28 05:11:00,
2013-02-27 22:22:00,26.0,3.0,-100.00,West,274,3.0,7.0,37,0.00,,,0.00,,2013-02-28 05:22:00,
2013-02-27 22:32:00,26.0,3.0,-100.00,West,274,3.0,7.0,37,0.00,,,0.00,,2013-02-28 05:32:00,
2013-02-27 22:40:00,28.0,6.0,-100.00,WNW,289,5.0,13.0,38,0.00,,,0.00,,2013-02-28 05:40:00,
2013-02-27 23:01:00,28.0,6.0,-100.00,WNW,289,5.0,13.0,38,0.00,,,0.00,,2013-02-28 06:01:00,
2013-02-27 23:11:00,28.0,6.0,-100.00,WNW,289,5.0,13.0,38,0.00,,,0.00,,2013-02-28 06:11:00,
2013-02-27 23:22:00,28.0,6.0,-100.00,WNW,289,5.0,13.0,38,0.00,,,0.00,,2013-02-28 06:22:00,
2013-02-27 23:32:00,28.0,6.0,-100.00,WNW,289,5.0,13.0,38,0.00,,,0.00,,2013-02-28 06:32:00,
2013-02-27 23:40:00,25.0,2.0,-100.00,ESE,112,1.0,9.0,37,0.00,,,0.00,,2013-02-28 06:40:00,